createdAt,value
2022-09-12T00:01:10.520Z,14.50
2022-09-12T00:03:38.852Z,14.32
2022-09-12T00:06:11.976Z,14.25
2022-09-12T00:08:38.827Z,14.22
2022-09-12T00:11:09.033Z,14.24
2022-09-12T00:13:41.488Z,14.27
2022-09-12T00:16:15.878Z,14.41
2022-09-12T00:18:42.735Z,14.29
2022-09-12T00:21:09.631Z,14.26
2022-09-12T00:23:36.371Z,14.15
2022-09-12T00:26:06.127Z,13.92
2022-09-12T00:28:34.884Z,13.43
2022-09-12T00:31:06.096Z,13.31
2022-09-12T00:33:33.308Z,13.50
2022-09-12T00:36:00.122Z,13.73
2022-09-12T00:38:26.942Z,13.76
2022-09-12T00:40:53.762Z,13.76
2022-09-12T00:43:34.228Z,13.77
2022-09-12T00:46:12.919Z,13.83
2022-09-12T00:48:45.329Z,13.76
2022-09-12T00:51:13.278Z,13.61
2022-09-12T00:53:43.742Z,13.35
2022-09-12T00:56:14.860Z,13.35
2022-09-12T00:58:48.761Z,13.42
2022-09-12T01:01:15.597Z,13.63
2022-09-12T01:03:42.424Z,13.81
2022-09-12T01:06:14.202Z,13.74
2022-09-12T01:08:43.169Z,13.90
2022-09-12T01:11:11.056Z,13.75
2022-09-12T01:13:37.863Z,13.75
2022-09-12T01:16:06.380Z,13.62
2022-09-12T01:19:02.821Z,13.25
2022-09-12T01:21:55.644Z,13.18
2022-09-12T01:24:47.012Z,13.07
2022-09-12T01:27:31.767Z,12.66
2022-09-12T01:30:03.956Z,12.78
2022-09-12T01:32:48.804Z,12.16
2022-09-12T01:35:24.176Z,11.75
2022-09-12T01:38:11.924Z,11.93
2022-09-12T01:40:56.389Z,12.11
2022-09-12T01:43:51.209Z,11.89
2022-09-12T01:46:30.001Z,11.55
2022-09-12T01:49:08.931Z,11.45
2022-09-12T01:52:08.993Z,11.34
2022-09-12T01:54:49.318Z,11.44
2022-09-12T01:57:45.609Z,11.54
2022-09-12T02:00:13.493Z,11.63
2022-09-12T02:02:56.438Z,11.64
2022-09-12T02:05:41.109Z,11.81
2022-09-12T02:08:17.308Z,12.00
2022-09-12T02:10:51.013Z,12.02
2022-09-12T02:13:46.730Z,12.36
2022-09-12T02:16:21.228Z,12.48
2022-09-12T02:18:55.453Z,12.55
2022-09-12T02:21:24.737Z,12.59
2022-09-12T02:23:58.856Z,12.58
2022-09-12T02:26:39.697Z,12.60
2022-09-12T02:29:06.706Z,12.56
2022-09-12T02:31:44.792Z,12.56
2022-09-12T02:34:33.599Z,12.60
2022-09-12T02:37:07.691Z,12.66
2022-09-12T02:39:35.161Z,12.59
2022-09-12T02:42:03.676Z,12.83
2022-09-12T02:44:31.994Z,11.90
2022-09-12T02:47:08.812Z,12.40
2022-09-12T02:49:35.763Z,12.06
2022-09-12T02:52:03.209Z,12.21
2022-09-12T02:54:31.129Z,12.13
2022-09-12T02:56:58.143Z,12.18
2022-09-12T02:59:25.657Z,11.91
2022-09-12T03:02:28.307Z,12.06
2022-09-12T03:05:01.240Z,12.03
2022-09-12T03:07:39.058Z,12.17
2022-09-12T03:10:23.946Z,12.20
2022-09-12T03:12:50.654Z,12.06
2022-09-12T03:15:32.677Z,12.05
2022-09-12T03:18:12.280Z,11.91
2022-09-12T03:20:48.019Z,11.88
2022-09-12T03:23:25.202Z,11.76
2022-09-12T03:25:59.499Z,11.63
2022-09-12T03:28:26.880Z,11.59
2022-09-12T03:30:56.532Z,11.33
2022-09-12T03:33:25.676Z,11.26
2022-09-12T03:35:53.426Z,11.47
2022-09-12T03:38:20.288Z,11.56
2022-09-12T03:40:50.303Z,11.63
2022-09-12T03:43:19.538Z,11.68
2022-09-12T03:45:52.232Z,11.67
2022-09-12T03:48:19.185Z,11.54
2022-09-12T03:50:45.949Z,11.33
2022-09-12T03:53:16.543Z,11.52
2022-09-12T03:55:44.802Z,11.56
2022-09-12T03:58:11.571Z,11.73
2022-09-12T04:00:39.297Z,11.40
2022-09-12T04:03:06.023Z,11.23
2022-09-12T04:05:32.850Z,11.36
2022-09-12T04:07:59.696Z,11.38
2022-09-12T04:10:26.484Z,11.46
2022-09-12T04:12:53.301Z,11.30
2022-09-12T04:15:20.687Z,10.92
2022-09-12T04:17:47.409Z,10.90
2022-09-12T04:20:14.211Z,10.98
2022-09-12T04:22:41.186Z,10.66
2022-09-12T04:25:09.591Z,10.44
2022-09-12T04:27:36.520Z,10.64
2022-09-12T04:30:04.267Z,10.50
2022-09-12T04:32:31.445Z,10.66
2022-09-12T04:34:58.437Z,10.59
2022-09-12T04:37:25.316Z,10.72
2022-09-12T04:39:56.142Z,10.49
2022-09-12T04:42:23.102Z,10.66
2022-09-12T04:44:49.883Z,10.47
2022-09-12T04:47:17.073Z,10.73
2022-09-12T04:49:43.861Z,10.79
2022-09-12T04:52:10.645Z,10.39
2022-09-12T04:54:37.975Z,10.57
2022-09-12T04:57:04.905Z,10.68
2022-09-12T04:59:31.636Z,10.98
2022-09-12T05:01:58.893Z,11.26
2022-09-12T05:04:25.678Z,11.54
2022-09-12T05:06:52.542Z,11.76
2022-09-12T05:09:19.384Z,11.78
2022-09-12T05:12:03.610Z,11.89
2022-09-12T05:14:32.608Z,12.03
2022-09-12T05:17:01.670Z,12.08
2022-09-12T05:19:30.471Z,12.09
2022-09-12T05:21:57.374Z,12.06
2022-09-12T05:24:24.821Z,11.98
2022-09-12T05:26:52.158Z,11.59
2022-09-12T05:29:19.136Z,11.58
2022-09-12T05:31:45.940Z,11.50
2022-09-12T05:34:12.771Z,11.51
2022-09-12T05:36:42.616Z,11.33
2022-09-12T05:39:09.773Z,11.43
2022-09-12T05:41:36.851Z,11.50
2022-09-12T05:44:06.005Z,11.73
2022-09-12T05:46:39.061Z,11.89
2022-09-12T05:49:08.606Z,11.95
2022-09-12T05:51:38.878Z,12.18
2022-09-12T05:54:07.780Z,12.34
2022-09-12T05:56:39.469Z,12.64
2022-09-12T05:59:16.265Z,12.79
2022-09-12T06:01:43.887Z,13.20
2022-09-12T06:04:12.155Z,13.38
2022-09-12T06:06:41.905Z,13.57
2022-09-12T06:09:09.410Z,13.77
2022-09-12T06:11:37.592Z,13.97
2022-09-12T06:14:04.590Z,14.41
2022-09-12T06:16:33.455Z,14.59
2022-09-12T06:19:02.798Z,14.85
2022-09-12T06:21:33.917Z,14.96
2022-09-12T06:24:01.070Z,15.25
2022-09-12T06:26:29.333Z,15.59
2022-09-12T06:28:59.446Z,15.82
2022-09-12T06:31:35.329Z,16.05
2022-09-12T06:34:08.073Z,16.15
2022-09-12T06:36:39.555Z,16.30
2022-09-12T06:39:10.260Z,16.34
2022-09-12T06:41:41.590Z,16.46
2022-09-12T06:44:16.294Z,16.60
2022-09-12T06:46:43.853Z,16.72
2022-09-12T06:49:11.070Z,16.89
2022-09-12T06:51:37.954Z,17.00
2022-09-12T06:54:05.594Z,17.16
2022-09-12T06:56:32.366Z,17.23
2022-09-12T06:58:59.501Z,17.35
2022-09-12T07:01:31.859Z,17.44
2022-09-12T07:04:01.321Z,17.50
2022-09-12T07:06:32.181Z,17.61
2022-09-12T07:09:00.159Z,17.77
2022-09-12T07:11:31.411Z,17.77
2022-09-12T07:14:00.183Z,17.77
2022-09-12T07:16:27.321Z,17.78
2022-09-12T07:18:59.222Z,17.78
2022-09-12T07:21:27.249Z,17.77
2022-09-12T07:23:58.038Z,17.80
2022-09-12T07:26:29.554Z,18.03
2022-09-12T07:29:18.753Z,17.96
2022-09-12T07:31:45.561Z,18.04
2022-09-12T07:34:13.065Z,18.04
2022-09-12T07:36:39.994Z,18.14
2022-09-12T07:39:06.924Z,18.19
2022-09-12T07:41:34.063Z,18.20
2022-09-12T07:44:02.462Z,18.23
2022-09-12T07:46:31.097Z,18.30
2022-09-12T07:48:59.989Z,18.30
2022-09-12T07:51:28.717Z,18.35
2022-09-12T07:53:56.652Z,18.46
2022-09-12T07:56:29.379Z,18.55
2022-09-12T07:58:57.798Z,18.61
2022-09-12T08:01:24.996Z,18.84
2022-09-12T08:03:57.270Z,18.78
2022-09-12T08:06:25.916Z,18.81
2022-09-12T08:08:55.340Z,18.91
2022-09-12T08:11:23.105Z,18.79
2022-09-12T08:13:55.242Z,18.98
2022-09-12T08:16:27.073Z,19.04
2022-09-12T08:18:54.420Z,19.16
2022-09-12T08:21:23.772Z,19.34
2022-09-12T08:23:56.541Z,19.38
2022-09-12T08:26:24.222Z,19.67
2022-09-12T08:28:51.518Z,20.05
2022-09-12T08:31:20.570Z,20.05
2022-09-12T08:33:47.551Z,19.96
2022-09-12T08:36:19.507Z,19.77
2022-09-12T08:38:49.445Z,19.45
2022-09-12T08:41:19.321Z,19.23
2022-09-12T08:43:56.700Z,19.21
2022-09-12T08:46:32.209Z,19.43
2022-09-12T08:49:02.383Z,19.47
2022-09-12T08:51:34.601Z,19.92
2022-09-12T08:54:04.655Z,20.06
2022-09-12T08:56:36.954Z,20.42
2022-09-12T08:59:03.758Z,20.52
2022-09-12T09:01:42.920Z,20.65
2022-09-12T09:04:28.587Z,20.69
2022-09-12T09:07:28.855Z,20.92
2022-09-12T09:10:38.303Z,20.69
2022-09-12T09:13:13.145Z,20.28
2022-09-12T09:16:03.026Z,19.83
2022-09-12T09:18:35.144Z,19.63
2022-09-12T09:21:34.365Z,19.73
2022-09-12T09:24:10.238Z,20.00
2022-09-12T09:26:52.524Z,20.39
2022-09-12T09:29:27.702Z,20.67
2022-09-12T09:31:57.811Z,20.64
2022-09-12T09:34:30.070Z,20.37
2022-09-12T09:37:15.301Z,20.78
2022-09-12T09:40:03.650Z,20.66
2022-09-12T09:43:29.003Z,20.64
2022-09-12T09:46:00.146Z,20.82
2022-09-12T09:48:37.194Z,21.17
2022-09-12T09:51:07.256Z,21.57
2022-09-12T09:53:51.867Z,21.72
2022-09-12T09:56:37.672Z,21.88
2022-09-12T09:59:18.358Z,21.35
2022-09-12T10:01:54.913Z,21.50
2022-09-12T10:04:27.460Z,21.66
2022-09-12T10:06:57.088Z,21.78
2022-09-12T10:09:28.982Z,21.62
2022-09-12T10:11:56.978Z,21.60
2022-09-12T10:14:38.018Z,21.56
2022-09-12T10:17:24.540Z,21.54
2022-09-12T10:20:10.446Z,21.71
2022-09-12T10:22:39.682Z,21.48
2022-09-12T10:25:12.472Z,21.52
2022-09-12T10:27:41.871Z,21.38
2022-09-12T10:30:14.771Z,21.99
2022-09-12T10:32:45.151Z,21.88
2022-09-12T10:35:24.532Z,21.83
2022-09-12T10:38:02.501Z,21.40
2022-09-12T10:40:39.401Z,21.13
2022-09-12T10:43:31.063Z,21.46
2022-09-12T10:45:59.291Z,22.26
2022-09-12T10:48:32.812Z,21.26
2022-09-12T10:51:00.970Z,21.06
2022-09-12T10:53:34.636Z,20.96
2022-09-12T10:56:18.899Z,20.89
2022-09-12T10:59:04.018Z,20.72
2022-09-12T11:01:45.327Z,20.75
2022-09-12T11:04:37.016Z,20.57
2022-09-12T11:07:28.924Z,20.73
2022-09-12T11:10:37.303Z,21.01
2022-09-12T11:13:29.298Z,21.09
2022-09-12T11:16:23.082Z,21.36
2022-09-12T11:19:03.746Z,21.24
2022-09-12T11:22:02.217Z,21.12
2022-09-12T11:24:52.362Z,20.78
2022-09-12T11:27:33.857Z,20.59
2022-09-12T11:30:14.027Z,20.76
2022-09-12T11:33:19.008Z,21.02
2022-09-12T11:35:55.481Z,21.35
2022-09-12T11:38:50.251Z,21.50
2022-09-12T11:41:34.450Z,21.70
2022-09-12T11:44:17.804Z,21.77
2022-09-12T11:46:48.739Z,21.73
2022-09-12T11:49:37.852Z,21.94
2022-09-12T11:52:15.635Z,22.07
2022-09-12T11:54:54.080Z,21.62
2022-09-12T11:57:33.899Z,21.34
2022-09-12T12:00:08.583Z,20.88
2022-09-12T12:02:49.598Z,20.66
2022-09-12T12:05:34.134Z,20.69
2022-09-12T12:08:04.489Z,20.50
2022-09-12T12:10:42.802Z,21.21
2022-09-12T12:13:15.789Z,21.61
2022-09-12T12:15:53.289Z,22.00
2022-09-12T12:18:27.256Z,22.20
2022-09-12T12:20:56.220Z,22.19
2022-09-12T12:23:30.299Z,22.20
2022-09-12T12:25:59.615Z,22.18
2022-09-12T12:28:38.683Z,21.89
2022-09-12T12:31:05.744Z,21.90
2022-09-12T12:33:32.584Z,22.00
2022-09-12T12:36:02.485Z,22.74
2022-09-12T12:38:34.708Z,22.95
2022-09-12T12:41:16.710Z,22.90
2022-09-12T12:43:50.042Z,23.39
2022-09-12T12:46:18.988Z,23.13
2022-09-12T12:49:01.044Z,23.05
2022-09-12T12:51:35.202Z,22.77
2022-09-12T12:54:09.799Z,22.31
2022-09-12T12:56:41.278Z,21.53
2022-09-12T12:59:23.137Z,21.37
2022-09-12T13:01:56.222Z,21.78
2022-09-12T13:04:27.142Z,21.99
2022-09-12T13:07:03.494Z,22.45
2022-09-12T13:09:37.964Z,22.44
2022-09-12T13:12:08.717Z,22.44
2022-09-12T13:14:35.463Z,22.74
2022-09-12T13:17:06.133Z,23.19
2022-09-12T13:19:38.177Z,22.88
2022-09-12T13:22:07.482Z,23.01
2022-09-12T13:24:42.266Z,23.34
2022-09-12T13:27:20.776Z,23.08
2022-09-12T13:29:47.816Z,22.15
2022-09-12T13:32:16.593Z,22.29
2022-09-12T13:35:05.213Z,22.08
2022-09-12T13:37:59.553Z,21.86
2022-09-12T13:40:32.014Z,21.76
2022-09-12T13:43:25.480Z,21.55
2022-09-12T13:45:53.065Z,21.59
2022-09-12T13:48:23.808Z,21.52
2022-09-12T13:51:00.684Z,21.45
2022-09-12T13:53:36.245Z,21.36
2022-09-12T13:56:03.875Z,21.69
2022-09-12T13:58:33.657Z,22.23
2022-09-12T14:01:04.758Z,21.86
2022-09-12T14:03:58.990Z,21.70
2022-09-12T14:06:27.683Z,22.10
2022-09-12T14:09:01.416Z,22.61
2022-09-12T14:11:31.073Z,22.83
2022-09-12T14:13:58.540Z,22.97
2022-09-12T14:16:29.096Z,22.78
2022-09-12T14:18:56.399Z,22.82
2022-09-12T14:21:30.485Z,22.49
2022-09-12T14:23:57.727Z,22.08
2022-09-12T14:26:28.326Z,22.03
2022-09-12T14:28:55.485Z,22.01
2022-09-12T14:31:28.706Z,21.97
2022-09-12T14:34:17.020Z,21.98
2022-09-12T14:36:50.569Z,21.83
2022-09-12T14:39:30.199Z,21.84
2022-09-12T14:42:04.866Z,21.73
2022-09-12T14:44:33.174Z,21.54
2022-09-12T14:47:23.537Z,21.63
2022-09-12T14:49:54.710Z,21.51
2022-09-12T14:52:32.433Z,21.48
2022-09-12T14:55:03.863Z,21.30
2022-09-12T14:57:34.369Z,21.38
2022-09-12T15:00:13.394Z,21.75
2022-09-12T15:02:42.782Z,21.90
2022-09-12T15:07:48.170Z,21.78
2022-09-12T15:10:31.140Z,22.14
2022-09-12T15:13:28.594Z,22.53
2022-09-12T15:15:58.973Z,22.27
2022-09-12T15:18:27.868Z,22.28
2022-09-12T15:21:06.287Z,22.62
2022-09-12T15:23:52.182Z,22.49
2022-09-12T15:26:27.192Z,22.29
2022-09-12T15:28:54.131Z,22.22
2022-09-12T15:31:27.009Z,22.07
2022-09-12T15:33:55.449Z,21.85
2022-09-12T15:36:23.633Z,21.84
2022-09-12T15:38:51.568Z,21.79
2022-09-12T15:41:28.334Z,21.81
2022-09-12T15:43:55.110Z,21.70
2022-09-12T15:46:21.975Z,21.58
2022-09-12T15:48:49.080Z,21.43
2022-09-12T15:51:18.803Z,21.48
2022-09-12T15:53:47.605Z,21.53
2022-09-12T15:56:18.312Z,21.70
2022-09-12T15:58:58.138Z,21.69
2022-09-12T16:01:26.708Z,21.63
2022-09-12T16:03:53.553Z,21.49
2022-09-12T16:06:20.452Z,21.40
2022-09-12T16:08:47.327Z,21.43
2022-09-12T16:11:23.699Z,21.29
2022-09-12T16:13:53.158Z,21.35
2022-09-12T16:16:20.106Z,21.34
2022-09-12T16:18:46.994Z,21.23
2022-09-12T16:21:15.451Z,21.10
2022-09-12T16:23:45.884Z,20.97
2022-09-12T16:26:13.251Z,21.03
2022-09-12T16:28:40.321Z,20.93
2022-09-12T16:31:10.204Z,21.00
2022-09-12T16:33:38.517Z,20.90
2022-09-12T16:36:10.736Z,20.61
2022-09-12T16:38:49.554Z,20.75
2022-09-12T16:41:19.053Z,20.61
2022-09-12T16:43:46.379Z,20.10
2022-09-12T16:46:17.296Z,20.08
2022-09-12T16:48:51.777Z,20.33
2022-09-12T16:51:25.069Z,20.12
2022-09-12T16:53:52.379Z,20.20
2022-09-12T16:56:19.455Z,20.32
2022-09-12T16:58:47.057Z,20.23
2022-09-12T17:01:16.713Z,20.32
2022-09-12T17:03:43.931Z,19.88
2022-09-12T17:06:12.082Z,19.92
2022-09-12T17:08:41.438Z,19.67
2022-09-12T17:11:13.994Z,19.61
2022-09-12T17:14:03.391Z,19.56
2022-09-12T17:16:28.952Z,19.39
2022-09-12T17:18:55.760Z,19.46
2022-09-12T17:21:25.748Z,19.43
2022-09-12T17:23:52.635Z,19.38
2022-09-12T17:26:20.941Z,19.37
2022-09-12T17:28:48.369Z,19.28
2022-09-12T17:31:15.457Z,18.91
2022-09-12T17:33:42.650Z,18.88
2022-09-12T17:36:12.449Z,19.07
2022-09-12T17:38:40.085Z,19.18
2022-09-12T17:41:16.130Z,18.85
2022-09-12T17:43:49.490Z,18.33
2022-09-12T17:46:17.502Z,17.77
2022-09-12T17:48:47.218Z,17.66
2022-09-12T17:51:15.343Z,17.93
2022-09-12T17:53:42.727Z,17.72
2022-09-12T17:56:10.896Z,17.57
2022-09-12T17:58:38.713Z,17.18
2022-09-12T18:01:33.178Z,17.15
2022-09-12T18:04:01.389Z,17.28
2022-09-12T18:06:29.288Z,17.25
2022-09-12T18:08:56.367Z,16.82
2022-09-12T18:11:23.392Z,16.82
2022-09-12T18:13:50.688Z,16.73
2022-09-12T18:16:17.982Z,16.76
2022-09-12T18:18:45.227Z,16.53
2022-09-12T18:21:12.711Z,16.34
2022-09-12T18:23:39.968Z,16.35
2022-09-12T18:26:09.227Z,16.22
2022-09-12T18:28:39.136Z,16.42
2022-09-12T18:31:12.492Z,16.21
2022-09-12T18:33:39.860Z,16.30
2022-09-12T18:36:08.483Z,16.56
2022-09-12T18:38:36.150Z,16.44
2022-09-12T18:41:15.024Z,16.37
2022-09-12T18:43:42.830Z,16.57
2022-09-12T18:46:16.324Z,16.75
2022-09-12T18:48:45.070Z,16.03
2022-09-12T18:51:14.725Z,15.96
2022-09-12T18:53:42.999Z,16.05
2022-09-12T18:56:12.992Z,16.08
2022-09-12T18:58:42.443Z,15.81
2022-09-12T19:01:09.560Z,15.64
2022-09-12T19:03:37.071Z,15.95
2022-09-12T19:06:19.227Z,16.11
2022-09-12T19:08:47.113Z,16.00
2022-09-12T19:11:16.454Z,15.60
2022-09-12T19:13:45.290Z,15.05
2022-09-12T19:16:15.886Z,14.88
2022-09-12T19:18:43.908Z,14.78
2022-09-12T19:21:17.842Z,14.77
2022-09-12T19:23:46.101Z,14.93
2022-09-12T19:26:14.934Z,14.97
2022-09-12T19:28:42.904Z,15.07
2022-09-12T19:31:15.771Z,15.06
2022-09-12T19:33:43.140Z,14.95
2022-09-12T19:36:33.687Z,14.94
2022-09-12T19:39:00.420Z,14.63
2022-09-12T19:41:27.436Z,14.81
2022-09-12T19:43:56.148Z,15.48
2022-09-12T19:46:25.171Z,15.71
2022-09-12T19:48:52.821Z,15.91
2022-09-12T19:51:21.634Z,15.81
2022-09-12T19:53:50.257Z,15.56
2022-09-12T19:56:17.490Z,15.53
2022-09-12T19:58:46.302Z,15.61
2022-09-12T20:01:29.795Z,15.55
2022-09-12T20:03:58.389Z,15.46
2022-09-12T20:06:26.260Z,15.42
2022-09-12T20:08:53.056Z,15.33
2022-09-12T20:11:23.650Z,15.37
2022-09-12T20:13:50.981Z,15.44
2022-09-12T20:16:29.983Z,15.45
2022-09-12T20:19:09.528Z,15.07
2022-09-12T20:21:37.009Z,15.04
2022-09-12T20:24:11.144Z,14.91
2022-09-12T20:26:38.256Z,14.59
2022-09-12T20:29:06.235Z,14.54
2022-09-12T20:31:33.883Z,14.81
2022-09-12T20:34:00.859Z,13.87
2022-09-12T20:36:28.187Z,13.39
2022-09-12T20:38:57.580Z,13.38
2022-09-12T20:41:25.810Z,13.48
2022-09-12T20:43:54.277Z,13.73
2022-09-12T20:46:22.706Z,13.68
2022-09-12T20:48:50.937Z,13.66
2022-09-12T20:51:18.515Z,14.26
2022-09-12T20:53:45.544Z,14.66
2022-09-12T20:56:12.368Z,14.71
2022-09-12T20:58:43.580Z,14.55
2022-09-12T21:01:13.129Z,14.37
2022-09-12T21:03:41.569Z,13.98
2022-09-12T21:06:09.328Z,13.92
2022-09-12T21:08:37.122Z,13.79
2022-09-12T21:11:04.845Z,13.33
2022-09-12T21:13:31.842Z,13.25
2022-09-12T21:15:59.973Z,12.98
2022-09-12T21:18:26.998Z,12.80
2022-09-12T21:20:54.701Z,12.56
2022-09-12T21:23:23.062Z,12.41
2022-09-12T21:25:52.680Z,12.51
2022-09-12T21:28:21.051Z,12.47
2022-09-12T21:30:49.663Z,12.22
2022-09-12T21:33:17.110Z,12.08
2022-09-12T21:35:44.489Z,12.13
2022-09-12T21:38:11.490Z,12.19
2022-09-12T21:40:38.284Z,12.34
2022-09-12T21:43:08.115Z,12.37
2022-09-12T21:45:37.277Z,12.54
2022-09-12T21:48:04.210Z,12.62
2022-09-12T21:50:31.131Z,12.66
2022-09-12T21:52:57.911Z,12.59
2022-09-12T21:55:27.199Z,12.19
2022-09-12T21:57:54.871Z,11.93
2022-09-12T22:00:22.626Z,11.85
2022-09-12T22:02:49.836Z,11.94
2022-09-12T22:05:17.440Z,12.18
2022-09-12T22:07:44.753Z,12.45
2022-09-12T22:10:11.557Z,12.81
2022-09-12T22:12:40.762Z,13.31
2022-09-12T22:15:36.511Z,13.14
2022-09-12T22:17:57.438Z,12.50
2022-09-12T22:20:24.257Z,12.26
2022-09-12T22:23:09.733Z,12.15
2022-09-12T22:25:36.636Z,12.05
2022-09-12T22:28:03.652Z,12.25
2022-09-12T22:30:31.759Z,12.27
2022-09-12T22:32:58.609Z,11.74
2022-09-12T22:35:25.500Z,11.77
2022-09-12T22:37:52.318Z,11.73
2022-09-12T22:40:19.836Z,11.69
2022-09-12T22:42:46.670Z,11.73
2022-09-12T22:45:13.461Z,12.07
2022-09-12T22:47:40.229Z,12.41
2022-09-12T22:50:07.489Z,12.84
2022-09-12T22:52:34.243Z,12.98
2022-09-12T22:55:01.008Z,12.90
2022-09-12T22:57:27.811Z,12.91
2022-09-12T22:59:54.579Z,12.88
2022-09-12T23:02:21.427Z,13.16
2022-09-12T23:04:48.638Z,13.40
2022-09-12T23:07:15.495Z,13.49
2022-09-12T23:09:42.357Z,13.43
2022-09-12T23:12:09.113Z,13.18
2022-09-12T23:14:35.882Z,12.98
2022-09-12T23:17:03.283Z,13.00
2022-09-12T23:19:30.020Z,13.03
2022-09-12T23:21:56.762Z,13.10
2022-09-12T23:24:23.593Z,12.94
2022-09-12T23:26:50.382Z,13.03
2022-09-12T23:29:17.124Z,12.89
2022-09-12T23:31:44.032Z,13.04
2022-09-12T23:34:10.891Z,12.99
2022-09-12T23:36:37.680Z,13.05
2022-09-12T23:39:04.593Z,13.17
2022-09-12T23:41:31.798Z,13.08
2022-09-12T23:43:58.849Z,13.14
2022-09-12T23:46:25.758Z,13.25
2022-09-12T23:48:53.641Z,13.35
2022-09-12T23:51:21.915Z,13.37
2022-09-12T23:53:49.318Z,13.15
2022-09-12T23:56:16.118Z,13.14
2022-09-12T23:58:42.884Z,13.09
